createdAt,value
2019-03-19T00:00:26.164Z,3.80
2019-03-19T00:04:29.527Z,2.83
2019-03-19T00:08:32.840Z,3.80
2019-03-19T00:12:36.884Z,4.40
2019-03-19T00:16:40.730Z,2.57
2019-03-19T00:20:44.077Z,4.13
2019-03-19T00:24:48.203Z,4.17
2019-03-19T00:28:52.045Z,3.37
2019-03-19T00:32:55.838Z,2.83
2019-03-19T00:36:59.500Z,4.90
2019-03-19T00:41:02.931Z,6.63
2019-03-19T00:45:06.600Z,3.73
2019-03-19T00:49:09.974Z,2.90
2019-03-19T00:53:13.322Z,3.87
2019-03-19T00:57:16.731Z,3.80
2019-03-19T01:01:20.180Z,3.43
2019-03-19T01:05:23.552Z,4.33
2019-03-19T01:09:26.897Z,4.00
2019-03-19T01:13:30.357Z,3.63
2019-03-19T01:17:33.683Z,3.00
2019-03-19T01:21:37.580Z,2.33
2019-03-19T01:25:54.468Z,3.07
2019-03-19T01:29:46.018Z,2.90
2019-03-19T01:33:49.436Z,2.53
2019-03-19T01:37:52.792Z,5.30
2019-03-19T01:41:56.749Z,3.10
2019-03-19T01:46:00.103Z,3.63
2019-03-19T01:50:03.745Z,3.33
2019-03-19T01:54:07.565Z,3.77
2019-03-19T01:58:11.059Z,2.87
2019-03-19T02:02:14.438Z,3.00
2019-03-19T02:06:18.319Z,5.07
2019-03-19T02:10:21.665Z,3.90
2019-03-19T02:14:24.979Z,4.33
2019-03-19T02:18:28.356Z,4.43
2019-03-19T02:22:31.737Z,4.73
2019-03-19T02:26:35.127Z,4.33
2019-03-19T02:30:39.010Z,6.20
2019-03-19T02:34:42.810Z,3.30
2019-03-19T02:38:46.162Z,3.47
2019-03-19T02:42:49.968Z,5.43
2019-03-19T02:46:53.434Z,5.13
2019-03-19T02:50:56.760Z,5.70
2019-03-19T02:55:00.417Z,4.67
2019-03-19T02:59:03.895Z,5.10
2019-03-19T03:03:07.710Z,8.07
2019-03-19T03:07:11.169Z,5.30
2019-03-19T03:11:14.855Z,5.57
2019-03-19T03:15:18.147Z,4.30
2019-03-19T03:19:21.895Z,4.30
2019-03-19T03:23:25.611Z,4.60
2019-03-19T03:27:28.920Z,5.77
2019-03-19T03:31:32.211Z,7.60
2019-03-19T03:35:35.512Z,8.00
2019-03-19T03:39:39.164Z,5.60
2019-03-19T03:43:42.824Z,6.37
2019-03-19T03:47:46.491Z,6.03
2019-03-19T03:51:49.790Z,6.13
2019-03-19T03:55:53.354Z,5.93
2019-03-19T03:59:57.420Z,5.93
2019-03-19T04:04:01.475Z,7.87
2019-03-19T04:08:05.484Z,6.10
2019-03-19T04:12:08.771Z,4.50
2019-03-19T04:16:12.343Z,4.50
2019-03-19T04:20:15.814Z,6.30
2019-03-19T04:24:19.396Z,5.00
2019-03-19T04:28:23.269Z,6.13
2019-03-19T04:32:26.555Z,5.60
2019-03-19T04:36:30.270Z,5.20
2019-03-19T04:40:33.564Z,6.30
2019-03-19T04:44:36.907Z,5.70
2019-03-19T04:48:40.599Z,7.73
2019-03-19T04:52:44.050Z,6.47
2019-03-19T04:56:47.783Z,5.70
2019-03-19T05:00:51.078Z,6.20
2019-03-19T05:04:54.393Z,4.43
2019-03-19T05:08:57.687Z,5.60
2019-03-19T05:13:00.988Z,5.07
2019-03-19T05:17:04.770Z,6.27
2019-03-19T05:21:08.062Z,5.80
2019-03-19T05:25:11.427Z,6.80
2019-03-19T05:29:15.167Z,5.67
2019-03-19T05:33:19.558Z,6.20
2019-03-19T05:37:23.467Z,7.33
2019-03-19T05:41:26.766Z,8.17
2019-03-19T05:45:30.503Z,8.27
2019-03-19T05:49:33.778Z,8.53
2019-03-19T05:53:37.070Z,8.43
2019-03-19T05:57:48.925Z,6.90
2019-03-19T06:01:45.366Z,6.20
2019-03-19T06:05:48.687Z,5.80
2019-03-19T06:09:52.402Z,7.87
2019-03-19T06:13:55.974Z,6.10
2019-03-19T06:17:59.710Z,7.70
2019-03-19T06:22:03.442Z,6.90
2019-03-19T06:26:06.738Z,8.50
2019-03-19T06:30:11.650Z,11.00
2019-03-19T06:34:14.934Z,12.60
2019-03-19T06:38:18.239Z,10.37
2019-03-19T06:42:21.965Z,8.60
2019-03-19T06:46:25.508Z,9.67
2019-03-19T06:50:29.242Z,8.97
2019-03-19T06:54:33.248Z,11.40
2019-03-19T06:58:36.997Z,12.50
2019-03-19T07:02:40.294Z,14.33
2019-03-19T07:06:44.054Z,16.43
2019-03-19T07:10:47.351Z,17.97
2019-03-19T07:14:50.642Z,21.60
2019-03-19T07:18:53.946Z,24.53
2019-03-19T07:22:57.683Z,27.23
2019-03-19T07:27:00.978Z,30.30
2019-03-19T07:31:04.790Z,30.97
2019-03-19T07:35:08.262Z,33.10
2019-03-19T07:39:11.811Z,36.90
2019-03-19T07:43:15.547Z,37.00
2019-03-19T07:47:19.293Z,42.40
2019-03-19T07:51:22.590Z,40.90
2019-03-19T07:55:26.330Z,40.13
2019-03-19T07:59:29.613Z,36.20
2019-03-19T08:03:32.910Z,29.73
2019-03-19T08:07:36.224Z,28.10
2019-03-19T08:11:39.949Z,26.80
2019-03-19T08:15:43.257Z,20.37
2019-03-19T08:19:46.550Z,20.47
2019-03-19T08:23:49.842Z,16.47
2019-03-19T08:27:53.591Z,18.60
2019-03-19T08:31:57.658Z,14.20
2019-03-19T08:36:08.955Z,14.47
2019-03-19T08:40:06.674Z,11.77
2019-03-19T08:44:10.390Z,9.90
2019-03-19T08:48:13.682Z,8.77
2019-03-19T08:52:16.986Z,8.50
2019-03-19T08:56:20.277Z,6.30
2019-03-19T09:00:23.674Z,7.30
2019-03-19T09:04:26.959Z,5.70
2019-03-19T09:08:31.522Z,5.57
2019-03-19T09:12:35.527Z,7.10
2019-03-19T09:16:39.386Z,5.50
2019-03-19T09:20:42.788Z,3.90
2019-03-19T09:24:46.083Z,4.87
2019-03-19T09:28:49.440Z,3.87
2019-03-19T09:32:52.812Z,3.53
2019-03-19T09:36:57.610Z,3.30
2019-03-19T09:41:01.237Z,4.40
2019-03-19T09:45:05.310Z,3.77
2019-03-19T09:49:09.075Z,3.53
2019-03-19T09:53:12.658Z,4.73
2019-03-19T09:57:16.058Z,4.00
2019-03-19T10:01:19.374Z,3.30
2019-03-19T10:05:22.846Z,3.10
2019-03-19T10:09:26.233Z,2.30
2019-03-19T10:13:29.842Z,2.60
2019-03-19T10:17:33.742Z,3.33
2019-03-19T10:21:37.042Z,2.67
2019-03-19T10:25:40.424Z,2.13
2019-03-19T10:29:44.207Z,2.47
2019-03-19T10:33:47.562Z,2.90
2019-03-19T10:37:51.370Z,2.07
2019-03-19T10:41:54.702Z,2.40
2019-03-19T10:45:58.110Z,2.73
2019-03-19T10:50:02.246Z,2.80
2019-03-19T10:54:05.623Z,3.63
2019-03-19T10:58:11.276Z,2.27
2019-03-19T11:02:14.218Z,2.97
2019-03-19T11:06:17.617Z,3.30
2019-03-19T11:10:21.166Z,3.10
2019-03-19T11:14:24.483Z,3.00
2019-03-19T11:18:27.805Z,3.17
2019-03-19T11:22:33.412Z,2.40
2019-03-19T11:26:36.960Z,3.50
2019-03-19T11:30:40.301Z,2.80
2019-03-19T11:34:44.197Z,2.70
2019-03-19T11:38:47.543Z,2.30
2019-03-19T11:42:50.971Z,3.40
2019-03-19T11:46:54.339Z,2.57
2019-03-19T11:50:57.702Z,2.40
2019-03-19T11:55:01.004Z,2.20
2019-03-19T11:59:04.928Z,2.40
2019-03-19T12:03:15.163Z,2.30
2019-03-19T12:07:13.910Z,2.50
2019-03-19T12:11:17.734Z,2.60
2019-03-19T12:15:21.530Z,1.70
2019-03-19T12:19:25.580Z,2.10
2019-03-19T12:23:29.320Z,1.90
2019-03-19T12:27:32.656Z,3.00
2019-03-19T12:31:36.440Z,2.30
2019-03-19T12:35:40.429Z,2.07
2019-03-19T12:39:43.731Z,2.10
2019-03-19T12:43:47.022Z,2.10
2019-03-19T12:47:50.848Z,2.40
2019-03-19T12:51:54.192Z,3.23
2019-03-19T12:55:57.492Z,3.50
2019-03-19T13:00:01.180Z,3.23
2019-03-19T13:04:05.170Z,2.60
2019-03-19T13:08:08.494Z,2.17
2019-03-19T13:12:12.006Z,2.13
2019-03-19T13:16:15.718Z,1.87
2019-03-19T13:20:19.135Z,2.20
2019-03-19T13:24:22.938Z,2.53
2019-03-19T13:28:26.748Z,2.10
2019-03-19T13:32:30.113Z,1.90
2019-03-19T13:36:33.474Z,2.57
2019-03-19T13:40:37.440Z,2.70
2019-03-19T13:44:40.827Z,2.90
2019-03-19T13:48:44.143Z,1.93
2019-03-19T13:52:47.715Z,2.30
2019-03-19T13:56:51.088Z,2.80
2019-03-19T14:00:55.812Z,1.90
2019-03-19T14:04:59.769Z,2.87
2019-03-19T14:09:04.007Z,3.23
2019-03-19T14:13:07.307Z,2.20
2019-03-19T14:17:11.134Z,2.73
2019-03-19T14:21:14.414Z,3.47
2019-03-19T14:25:17.776Z,3.73
2019-03-19T14:29:21.058Z,3.47
2019-03-19T14:33:24.571Z,2.80
2019-03-19T14:37:27.842Z,2.97
2019-03-19T14:41:31.610Z,3.10
2019-03-19T14:45:34.886Z,3.90
2019-03-19T14:49:46.987Z,3.70
2019-03-19T14:53:44.446Z,3.73
2019-03-19T14:57:47.816Z,3.37
2019-03-19T15:01:51.102Z,3.97
2019-03-19T15:05:54.398Z,3.67
2019-03-19T15:09:57.670Z,4.50
2019-03-19T15:14:01.478Z,3.43
2019-03-19T15:18:05.174Z,3.63
2019-03-19T15:22:08.467Z,3.93
2019-03-19T15:26:11.754Z,3.47
2019-03-19T15:30:15.231Z,3.63
2019-03-19T15:34:18.898Z,3.40
2019-03-19T15:38:22.632Z,4.43
2019-03-19T15:42:26.358Z,4.40
2019-03-19T15:46:29.742Z,3.73
2019-03-19T15:50:33.562Z,4.10
2019-03-19T15:54:36.851Z,4.50
2019-03-19T15:58:40.534Z,5.33
2019-03-19T16:02:43.816Z,4.73
2019-03-19T16:06:47.542Z,5.13
2019-03-19T16:10:50.831Z,4.77
2019-03-19T16:14:54.133Z,4.67
2019-03-19T16:18:58.242Z,4.47
2019-03-19T16:23:01.970Z,5.87
2019-03-19T16:27:05.254Z,4.50
2019-03-19T16:31:08.550Z,4.73
2019-03-19T16:35:12.018Z,4.33
2019-03-19T16:39:15.314Z,4.90
2019-03-19T16:43:18.612Z,5.10
2019-03-19T16:47:21.870Z,5.10
2019-03-19T16:51:25.702Z,5.70
2019-03-19T16:55:29.510Z,4.67
2019-03-19T16:59:32.782Z,5.23
2019-03-19T17:03:36.554Z,6.50
2019-03-19T17:07:40.333Z,6.00
2019-03-19T17:11:43.615Z,6.10
2019-03-19T17:15:47.668Z,5.83
2019-03-19T17:19:51.374Z,5.93
2019-03-19T17:23:54.663Z,6.13
2019-03-19T17:27:57.954Z,6.90
2019-03-19T17:32:01.226Z,6.97
2019-03-19T17:36:04.535Z,7.73
2019-03-19T17:40:08.378Z,8.40
2019-03-19T17:44:11.984Z,8.73
2019-03-19T17:48:16.401Z,7.93
2019-03-19T17:52:19.822Z,8.67
2019-03-19T17:56:23.130Z,9.77
2019-03-19T18:00:28.168Z,11.83
2019-03-19T18:04:31.467Z,10.20
2019-03-19T18:08:34.802Z,11.00
2019-03-19T18:12:38.070Z,8.17
2019-03-19T18:16:42.238Z,7.23
2019-03-19T18:20:45.526Z,8.30
2019-03-19T18:24:48.940Z,9.70
2019-03-19T18:28:52.299Z,7.87
2019-03-19T18:32:56.091Z,9.27
2019-03-19T18:36:59.405Z,11.07
2019-03-19T18:41:03.143Z,6.43
2019-03-19T18:45:06.678Z,6.57
2019-03-19T18:49:10.051Z,7.13
2019-03-19T18:53:13.846Z,8.13
2019-03-19T18:57:17.123Z,11.43
2019-03-19T19:01:20.423Z,12.97
2019-03-19T19:05:23.806Z,13.00
2019-03-19T19:09:27.607Z,14.00
2019-03-19T19:13:30.932Z,22.10
2019-03-19T19:17:34.394Z,40.33
2019-03-19T19:21:37.772Z,20.10
2019-03-19T19:25:41.792Z,19.10
2019-03-19T19:29:45.798Z,15.57
2019-03-19T19:33:50.195Z,17.00
2019-03-19T19:37:53.894Z,14.10
2019-03-19T19:41:57.320Z,13.57
2019-03-19T19:46:01.163Z,14.50
2019-03-19T19:50:05.237Z,16.27
2019-03-19T19:54:08.655Z,11.10
2019-03-19T19:58:12.741Z,14.13
2019-03-19T20:02:16.824Z,15.23
2019-03-19T20:06:20.273Z,15.07
2019-03-19T20:10:23.730Z,13.10
2019-03-19T20:14:27.215Z,15.20
2019-03-19T20:18:31.387Z,14.43
2019-03-19T20:22:34.794Z,15.73
2019-03-19T20:26:38.277Z,15.93
2019-03-19T20:30:41.763Z,14.07
2019-03-19T20:34:45.776Z,15.27
2019-03-19T20:38:49.116Z,15.00
2019-03-19T20:42:52.514Z,14.60
2019-03-19T20:46:56.336Z,14.70
2019-03-19T20:50:59.815Z,14.20
2019-03-19T20:55:03.587Z,14.40
2019-03-19T20:59:07.436Z,14.10
2019-03-19T21:03:10.838Z,15.93
2019-03-19T21:07:14.981Z,14.60
2019-03-19T21:11:18.435Z,15.33
2019-03-19T21:15:22.707Z,15.50
2019-03-19T21:19:26.127Z,16.67
2019-03-19T21:23:30.064Z,13.83
2019-03-19T21:27:33.941Z,16.83
2019-03-19T21:31:37.218Z,17.30
2019-03-19T21:35:41.438Z,17.60
2019-03-19T21:39:45.335Z,16.47
2019-03-19T21:43:48.672Z,17.40
2019-03-19T21:47:51.965Z,19.33
2019-03-19T21:51:55.312Z,19.03
2019-03-19T21:55:58.636Z,19.27
2019-03-19T22:00:02.062Z,19.30
2019-03-19T22:04:06.049Z,21.43
2019-03-19T22:08:10.143Z,22.07
2019-03-19T22:12:14.311Z,22.40
2019-03-19T22:16:17.655Z,22.20
2019-03-19T22:20:21.093Z,26.37
2019-03-19T22:24:24.527Z,23.43
2019-03-19T22:28:28.444Z,22.90
2019-03-19T22:32:31.774Z,22.20
2019-03-19T22:36:35.134Z,24.43
2019-03-19T22:40:38.952Z,25.57
2019-03-19T22:44:42.367Z,25.53
2019-03-19T22:48:46.519Z,24.57
2019-03-19T22:52:50.345Z,25.00
2019-03-19T22:56:54.196Z,26.57
2019-03-19T23:00:57.746Z,26.17
2019-03-19T23:05:01.283Z,24.53
2019-03-19T23:09:07.003Z,23.57
2019-03-19T23:13:11.889Z,24.90
2019-03-19T23:17:15.444Z,26.77
2019-03-19T23:21:18.846Z,25.00
2019-03-19T23:25:22.291Z,25.17
2019-03-19T23:29:25.828Z,29.17
2019-03-19T23:33:29.630Z,25.70
2019-03-19T23:37:33.010Z,26.10
2019-03-19T23:41:36.397Z,25.67
2019-03-19T23:45:39.766Z,27.63
2019-03-19T23:49:43.192Z,26.47
2019-03-19T23:53:46.617Z,27.50
2019-03-19T23:57:50.478Z,27.50
